createdAt,value
2019-01-05T01:04:12.681Z,90.79
2019-01-05T01:07:39.564Z,90.58
2019-01-05T01:10:41.763Z,90.46
2019-01-05T01:13:58.808Z,90.66
2019-01-05T01:17:05.999Z,91.25
2019-01-05T01:20:20.560Z,92.04
2019-01-05T01:23:29.620Z,91.50
2019-01-05T01:26:41.264Z,92.55
2019-01-05T01:29:44.362Z,94.50
2019-01-05T01:32:51.678Z,95.12
2019-01-05T01:36:03.072Z,94.62
2019-01-05T01:39:38.317Z,94.36
2019-01-05T01:42:58.678Z,94.17
2019-01-05T01:46:08.393Z,95.10
2019-01-05T01:49:17.977Z,94.07
2019-01-05T01:52:25.444Z,93.81
2019-01-05T01:55:39.995Z,93.94
2019-01-05T01:58:51.190Z,94.65
2019-01-05T02:01:56.027Z,93.89
2019-01-05T02:05:01.733Z,94.46
2019-01-05T02:08:28.149Z,94.90
2019-01-05T02:11:38.571Z,94.20
2019-01-05T02:15:07.952Z,93.08
2019-01-05T02:18:51.215Z,92.36
2019-01-05T02:23:00.281Z,92.38
2019-01-05T02:26:57.854Z,91.17
2019-01-05T02:30:24.859Z,92.33
2019-01-05T02:34:03.708Z,93.64
2019-01-05T02:37:47.998Z,94.44
2019-01-05T02:41:23.640Z,91.72
2019-01-05T02:45:16.675Z,91.25
2019-01-05T02:49:00.174Z,91.54
2019-01-05T02:53:01.322Z,91.88
2019-01-05T02:57:13.869Z,91.87
2019-01-05T03:01:15.087Z,90.08
2019-01-05T03:05:09.616Z,92.26
2019-01-05T03:08:58.789Z,92.81
2019-01-05T03:12:48.240Z,93.20
2019-01-05T03:16:39.134Z,93.62
2019-01-05T03:20:37.054Z,92.99
2019-01-05T03:24:16.423Z,92.92
2019-01-05T03:27:59.024Z,93.70
2019-01-05T03:32:03.138Z,93.21
2019-01-05T03:35:38.280Z,94.67
2019-01-05T03:39:25.101Z,92.45
2019-01-05T03:42:52.065Z,90.22
2019-01-05T03:46:27.137Z,91.69
2019-01-05T03:50:41.342Z,92.03
2019-01-05T03:54:54.611Z,91.91
2019-01-05T03:59:04.461Z,93.34
2019-01-05T04:02:57.279Z,93.14
2019-01-05T04:06:39.124Z,92.08
2019-01-05T04:10:19.834Z,91.33
2019-01-05T04:14:08.074Z,90.21
2019-01-05T04:17:55.141Z,90.14
2019-01-05T04:21:45.811Z,89.52
2019-01-05T04:25:22.115Z,90.01
2019-01-05T04:29:11.370Z,89.57
2019-01-05T04:32:51.039Z,89.92
2019-01-05T04:36:26.837Z,90.93
2019-01-05T04:40:10.663Z,92.07
2019-01-05T04:44:01.855Z,91.78
2019-01-05T04:47:55.873Z,91.32
2019-01-05T04:51:35.987Z,92.46
2019-01-05T04:55:23.471Z,92.47
2019-01-05T04:59:09.783Z,91.65
2019-01-05T05:02:46.421Z,91.20
2019-01-05T05:06:40.091Z,91.36
2019-01-05T05:10:14.888Z,90.89
2019-01-05T05:14:11.467Z,90.51
2019-01-05T05:18:12.501Z,90.42
2019-01-05T05:22:32.946Z,90.09
2019-01-05T05:26:30.915Z,90.43
2019-01-05T05:30:23.012Z,89.77
2019-01-05T05:34:10.337Z,91.37
2019-01-05T05:37:52.442Z,91.84
2019-01-05T05:41:38.457Z,91.99
2019-01-05T05:45:42.621Z,92.15
2019-01-05T05:49:40.345Z,92.72
2019-01-05T05:54:11.897Z,94.23
2019-01-05T05:57:56.143Z,93.74
2019-01-05T06:02:06.006Z,89.24
2019-01-05T06:05:51.443Z,90.03
2019-01-05T06:09:40.580Z,89.40
2019-01-05T06:13:45.208Z,87.30
2019-01-05T06:17:34.643Z,86.77
2019-01-05T06:21:26.738Z,86.93
2019-01-05T06:25:07.066Z,87.68
2019-01-05T06:29:04.511Z,86.25
2019-01-05T06:32:46.263Z,83.36
2019-01-05T06:36:31.963Z,83.96
2019-01-05T06:40:37.984Z,87.69
2019-01-05T06:44:34.424Z,88.11
2019-01-05T06:51:25.157Z,86.35
2019-01-05T06:55:11.528Z,86.18
2019-01-05T06:59:17.382Z,84.38
2019-01-05T07:03:22.335Z,86.67
2019-01-05T07:07:02.041Z,87.16
2019-01-05T07:11:10.081Z,87.51
2019-01-05T07:14:54.284Z,88.51
2019-01-05T07:18:33.333Z,89.14
2019-01-05T07:22:32.786Z,90.81
2019-01-05T07:26:18.013Z,91.49
2019-01-05T07:30:16.861Z,91.34
2019-01-05T07:34:14.700Z,92.40
2019-01-05T07:38:05.703Z,90.94
2019-01-05T07:42:02.832Z,89.95
2019-01-05T07:45:41.354Z,92.44
2019-01-05T07:49:30.529Z,93.03
2019-01-05T07:53:50.031Z,91.14
2019-01-05T07:57:49.030Z,90.69
2019-01-05T08:01:35.392Z,90.10
2019-01-05T08:05:31.284Z,92.02
2019-01-05T08:09:22.465Z,90.90
2019-01-05T08:13:17.832Z,89.41
2019-01-05T08:17:30.842Z,87.39
2019-01-05T08:21:45.424Z,87.46
2019-01-05T08:25:27.931Z,88.03
2019-01-05T08:29:33.473Z,87.71
2019-01-05T08:33:34.136Z,86.46
2019-01-05T08:37:17.041Z,86.52
2019-01-05T08:41:01.269Z,89.35
2019-01-05T08:45:23.786Z,87.87
2019-01-05T08:49:29.701Z,88.75
2019-01-05T08:53:13.426Z,87.27
2019-01-05T08:57:11.502Z,87.61
2019-01-05T09:01:26.869Z,87.52
2019-01-05T09:05:25.692Z,86.45
2019-01-05T09:09:02.711Z,86.22
2019-01-05T09:12:45.371Z,85.67
2019-01-05T09:16:26.072Z,84.93
2019-01-05T09:20:43.010Z,84.29
2019-01-05T09:24:25.769Z,83.81
2019-01-05T09:28:19.881Z,81.75
2019-01-05T09:32:22.263Z,81.24
2019-01-05T09:36:39.526Z,81.70
2019-01-05T09:40:28.792Z,80.88
2019-01-05T09:44:28.267Z,82.75
2019-01-05T09:48:15.004Z,84.64
2019-01-05T09:52:10.273Z,86.18
2019-01-05T09:56:00.276Z,86.34
2019-01-05T09:59:50.255Z,85.48
2019-01-05T10:03:54.669Z,86.10
2019-01-05T10:07:29.402Z,85.46
2019-01-05T10:11:07.974Z,85.07
2019-01-05T10:14:55.416Z,84.45
2019-01-05T10:19:00.595Z,85.18
2019-01-05T10:22:52.412Z,83.64
2019-01-05T10:27:01.909Z,85.74
2019-01-05T10:31:03.661Z,86.69
2019-01-05T10:35:16.507Z,85.07
2019-01-05T10:39:18.768Z,84.26
2019-01-05T10:43:09.283Z,83.18
2019-01-05T10:46:56.004Z,80.69
2019-01-05T10:50:58.231Z,81.59
2019-01-05T10:54:55.430Z,82.34
2019-01-05T10:59:10.611Z,82.72
2019-01-05T11:03:07.226Z,81.06
2019-01-05T11:06:59.779Z,79.42
2019-01-05T11:10:57.844Z,78.58
2019-01-05T11:14:44.934Z,76.87
2019-01-05T11:18:42.169Z,78.90
2019-01-05T11:22:32.659Z,77.91
2019-01-05T11:26:32.512Z,82.37
2019-01-05T11:30:23.600Z,82.66
2019-01-05T11:34:12.628Z,82.63
2019-01-05T11:38:11.190Z,79.11
2019-01-05T11:42:13.404Z,82.92
2019-01-05T11:46:05.336Z,84.10
2019-01-05T11:50:03.273Z,83.24
2019-01-05T11:53:59.217Z,82.71
2019-01-05T11:57:49.391Z,81.23
2019-01-05T12:01:30.558Z,80.07
2019-01-05T12:05:36.778Z,78.56
2019-01-05T12:09:45.224Z,77.75
2019-01-05T12:13:23.511Z,79.49
2019-01-05T12:17:02.281Z,77.55
2019-01-05T12:20:55.074Z,76.42
2019-01-05T12:24:32.464Z,75.82
2019-01-05T12:28:22.964Z,72.67
2019-01-05T12:32:08.812Z,72.83
2019-01-05T12:35:58.036Z,73.23
2019-01-05T12:39:47.646Z,73.60
2019-01-05T12:43:38.322Z,74.52
2019-01-05T12:47:12.095Z,73.72
2019-01-05T12:50:55.803Z,75.86
2019-01-05T12:55:27.410Z,76.04
2019-01-05T12:59:14.273Z,75.80
2019-01-05T13:02:48.443Z,77.91
2019-01-05T13:06:44.223Z,78.82
2019-01-05T13:10:17.935Z,80.65
2019-01-05T13:14:14.141Z,80.03
2019-01-05T13:18:18.148Z,81.49
2019-01-05T13:22:02.201Z,79.45
2019-01-05T13:25:37.495Z,76.01
2019-01-05T13:29:01.087Z,75.79
2019-01-05T13:32:25.988Z,74.41
2019-01-05T13:36:10.034Z,75.60
2019-01-05T13:39:36.958Z,75.44
2019-01-05T13:43:27.661Z,74.71
2019-01-05T13:46:50.248Z,73.09
2019-01-05T13:50:19.778Z,73.22
2019-01-05T13:53:45.365Z,72.97
2019-01-05T13:56:56.605Z,72.93
2019-01-05T13:59:52.460Z,74.24
2019-01-05T14:02:54.245Z,75.91
2019-01-05T14:05:53.060Z,75.12
2019-01-05T14:08:45.614Z,74.38
2019-01-05T14:11:34.168Z,75.23
2019-01-05T14:14:36.134Z,75.42
2019-01-05T14:17:25.750Z,75.67
2019-01-05T14:20:15.918Z,76.11
2019-01-05T14:23:15.888Z,76.56
2019-01-05T14:26:05.707Z,77.09
2019-01-05T14:29:04.487Z,78.17
2019-01-05T14:31:53.043Z,77.75
2019-01-05T14:34:38.982Z,78.19
2019-01-05T14:37:24.256Z,78.74
2019-01-05T14:40:12.650Z,79.12
2019-01-05T14:43:08.637Z,78.83
2019-01-05T14:46:12.946Z,79.81
2019-01-05T14:49:02.749Z,79.37
2019-01-05T14:52:01.640Z,79.88
2019-01-05T14:55:06.844Z,80.38
2019-01-05T14:57:56.827Z,82.82
2019-01-05T15:00:49.372Z,85.26
2019-01-05T15:03:37.751Z,87.97
2019-01-05T15:06:26.447Z,88.21
2019-01-05T15:09:16.194Z,88.13
2019-01-05T15:12:06.019Z,88.33
2019-01-05T15:14:55.795Z,88.18
2019-01-05T15:17:48.284Z,88.26
2019-01-05T15:20:47.157Z,88.25
2019-01-05T15:23:36.934Z,87.81
2019-01-05T15:26:26.716Z,86.84
2019-01-05T15:29:22.778Z,84.83
2019-01-05T15:32:10.571Z,84.94
2019-01-05T15:35:09.841Z,84.97
2019-01-05T15:38:02.544Z,85.18
2019-01-05T15:41:08.681Z,85.28
2019-01-05T15:43:56.989Z,86.13
2019-01-05T15:46:45.493Z,86.94
2019-01-05T15:49:33.808Z,86.93
2019-01-05T15:52:24.227Z,85.59
2019-01-05T15:55:13.052Z,85.70
2019-01-05T15:58:05.943Z,85.20
2019-01-05T16:00:54.262Z,83.91
2019-01-05T16:03:42.719Z,83.70
2019-01-05T16:06:38.630Z,84.08
2019-01-05T16:09:34.311Z,83.87
2019-01-05T16:12:22.763Z,84.19
2019-01-05T16:15:11.743Z,83.89
2019-01-05T16:18:01.257Z,83.98
2019-01-05T16:21:03.421Z,83.96
2019-01-05T16:23:50.320Z,83.54
2019-01-05T16:26:44.316Z,83.64
2019-01-05T16:29:25.957Z,83.17
2019-01-05T16:32:15.771Z,83.73
2019-01-05T16:35:04.649Z,82.87
2019-01-05T16:38:06.922Z,83.12
2019-01-05T16:40:56.695Z,83.55
2019-01-05T16:43:46.044Z,83.92
2019-01-05T16:46:34.594Z,83.46
2019-01-05T16:49:30.150Z,84.20
2019-01-05T16:52:26.054Z,83.83
2019-01-05T16:55:18.872Z,84.62
2019-01-05T16:58:12.030Z,85.29
2019-01-05T17:01:04.337Z,85.16
2019-01-05T17:03:52.636Z,85.32
2019-01-05T17:06:41.151Z,85.92
2019-01-05T17:09:46.346Z,85.17
2019-01-05T17:12:42.079Z,83.58
2019-01-05T17:15:44.586Z,83.05
2019-01-05T17:18:38.558Z,84.94
2019-01-05T17:21:43.652Z,84.44
2019-01-05T17:24:32.029Z,85.92
2019-01-05T17:27:28.209Z,84.25
2019-01-05T17:30:19.788Z,82.49
2019-01-05T17:33:08.480Z,81.83
2019-01-05T17:36:13.986Z,81.58
2019-01-05T17:39:02.593Z,83.28
2019-01-05T17:41:51.373Z,82.45
2019-01-05T17:44:39.723Z,81.18
2019-01-05T17:47:29.844Z,81.29
2019-01-05T17:50:18.781Z,83.52
2019-01-05T17:53:14.498Z,83.89
2019-01-05T17:56:19.496Z,84.06
2019-01-05T17:59:12.193Z,86.72
2019-01-05T18:02:10.458Z,86.79
2019-01-05T18:05:15.731Z,86.33
2019-01-05T18:08:05.526Z,89.18
2019-01-05T18:11:12.241Z,87.49
2019-01-05T18:14:00.721Z,87.86
2019-01-05T18:17:08.703Z,87.82
2019-01-05T18:19:58.121Z,86.80
2019-01-05T18:22:56.842Z,86.92
2019-01-05T18:25:46.777Z,88.12
2019-01-05T18:28:48.717Z,88.12
2019-01-05T18:31:37.169Z,88.61
2019-01-05T18:34:42.346Z,85.84
2019-01-05T18:37:30.843Z,81.45
2019-01-05T18:40:19.560Z,83.89
2019-01-05T18:43:12.634Z,83.89
2019-01-05T18:46:02.644Z,84.27
2019-01-05T18:48:55.194Z,87.17
2019-01-05T18:51:45.873Z,88.63
2019-01-05T18:54:39.540Z,91.04
2019-01-05T18:57:29.575Z,92.40
2019-01-05T19:00:25.218Z,91.11
2019-01-05T19:03:13.792Z,91.18
2019-01-05T19:06:02.186Z,89.61
2019-01-05T19:09:10.541Z,88.49
2019-01-05T19:12:12.328Z,88.21
2019-01-05T19:15:01.134Z,86.84
2019-01-05T19:18:00.123Z,84.78
2019-01-05T19:20:49.686Z,82.16
2019-01-05T19:23:45.898Z,82.03
2019-01-05T19:26:54.227Z,82.03
2019-01-05T19:29:47.168Z,83.34
2019-01-05T19:32:46.040Z,82.44
2019-01-05T19:35:34.606Z,82.08
2019-01-05T19:38:27.506Z,81.56
2019-01-05T19:41:20.203Z,81.56
2019-01-05T19:44:09.079Z,81.79
2019-01-05T19:47:11.067Z,81.91
2019-01-05T19:50:19.092Z,83.58
2019-01-05T19:53:07.612Z,85.58
2019-01-05T19:55:56.680Z,88.32
2019-01-05T19:58:45.237Z,88.32
2019-01-05T20:01:38.099Z,89.22
2019-01-05T20:04:26.896Z,88.61
2019-01-05T20:07:02.853Z,87.23
2019-01-05T20:10:05.053Z,88.31
2019-01-05T20:13:00.233Z,89.32
2019-01-05T20:16:02.151Z,89.32
2019-01-05T20:19:10.486Z,89.22
2019-01-05T20:22:09.478Z,89.02
2019-01-05T20:25:14.482Z,88.15
2019-01-05T20:28:17.139Z,86.83
2019-01-05T20:31:07.112Z,87.34
2019-01-05T20:33:55.405Z,87.34
2019-01-05T20:36:43.848Z,84.94
2019-01-05T20:39:30.641Z,86.70
2019-01-05T20:42:29.484Z,88.71
2019-01-05T20:45:18.221Z,90.92
2019-01-05T20:48:11.137Z,92.32
2019-01-05T20:51:00.955Z,91.77
2019-01-05T20:54:02.973Z,89.62
2019-01-05T20:56:51.352Z,87.92
2019-01-05T21:00:06.296Z,84.79
2019-01-05T21:03:12.659Z,82.28
2019-01-05T21:06:33.928Z,84.20
2019-01-05T21:09:51.427Z,84.78
2019-01-05T21:12:58.779Z,84.60
2019-01-05T21:16:25.372Z,84.93
2019-01-05T21:19:42.348Z,84.39
2019-01-05T21:22:52.912Z,82.54
2019-01-05T21:26:13.585Z,82.94
2019-01-05T21:29:19.887Z,82.94
2019-01-05T21:32:28.330Z,86.03
2019-01-05T21:35:34.667Z,86.03
2019-01-05T21:38:46.828Z,86.56
2019-01-05T21:42:07.687Z,85.36
2019-01-05T21:45:14.693Z,85.36
2019-01-05T21:48:21.758Z,84.88
2019-01-05T21:51:43.386Z,83.52
2019-01-05T21:54:54.962Z,86.80
2019-01-05T21:58:02.069Z,87.68
2019-01-05T22:01:28.596Z,87.08
2019-01-05T22:04:36.316Z,87.08
2019-01-05T22:07:43.327Z,89.44
2019-01-05T22:11:00.957Z,89.20
2019-01-05T22:14:00.468Z,89.20
2019-01-05T22:17:07.449Z,86.81
2019-01-05T22:20:15.454Z,84.60
2019-01-05T22:23:26.537Z,84.67
2019-01-05T22:26:33.710Z,86.08
2019-01-05T22:29:40.996Z,86.98
2019-01-05T22:32:49.145Z,86.98
2019-01-05T22:36:02.440Z,88.22
2019-01-05T22:39:19.610Z,89.71
2019-01-05T22:42:28.883Z,89.05
2019-01-05T22:45:34.803Z,88.01
2019-01-05T22:48:43.033Z,89.23
2019-01-05T22:51:49.418Z,91.43
2019-01-05T22:55:02.200Z,93.08
2019-01-05T22:58:09.738Z,93.98
2019-01-05T23:01:36.453Z,93.47
2019-01-05T23:04:44.076Z,93.47
2019-01-05T23:08:01.470Z,90.11
2019-01-05T23:11:12.826Z,92.19
2019-01-05T23:14:41.595Z,97.80
2019-01-05T23:17:48.891Z,100.00
2019-01-05T23:21:12.471Z,100.00
2019-01-05T23:24:19.778Z,100.00
2019-01-05T23:27:40.330Z,100.00
2019-01-05T23:31:00.632Z,100.00
2019-01-05T23:34:17.178Z,100.00
2019-01-05T23:37:37.330Z,100.00
2019-01-05T23:40:43.449Z,99.86
2019-01-05T23:43:51.977Z,98.58
2019-01-05T23:46:58.457Z,96.83
2019-01-05T23:50:21.655Z,94.75
2019-01-05T23:53:30.133Z,93.07
2019-01-05T23:56:37.096Z,93.67
2019-01-05T23:59:43.980Z,93.70
